EDT,Max TemperatureF,Mean TemperatureF,Min TemperatureF,Max Dew PointF,MeanDew PointF,Min DewpointF,Max Humidity, Mean Humidity, Min Humidity, Max Sea Level PressureIn, Mean Sea Level PressureIn, Min Sea Level PressureIn, Max VisibilityMiles, Mean VisibilityMiles, Min VisibilityMiles, Max Wind SpeedMPH, Mean Wind SpeedMPH, Max Gust SpeedMPH,PrecipitationIn, CloudCover, Events, WindDirDegrees
2013-6-1,80,71,62,66,62,59,90,79,62,30.00,29.97,29.94,10,9,7,24,11,31,0.00,0,,216
2013-6-2,72,68,64,64,63,61,94,85,75,29.95,29.89,29.85,10,9,6,23,19,32,0.00,3,Rain,218
2013-6-3,66,64,62,65,63,62,100,96,88,29.87,29.84,29.79,10,4,1,20,14,28,2.77,8,Rain-Thunderstorm,216
2013-6-4,70,60,50,63,49,42,100,66,39,30.07,29.90,29.79,10,10,9,13,6,21,0.00,2,,337
2013-6-5,70,56,46,54,47,42,93,66,40,30.19,30.15,30.08,10,10,10,12,3,,0.00,0,,184
2013-6-6,69,59,52,55,51,49,89,69,54,30.20,30.16,30.09,10,10,10,13,6,18,0.00,0,,153
2013-6-7,68,62,57,66,57,51,100,91,78,30.08,29.94,29.75,10,6,1,20,8,31,1.75,8,Rain,102
2013-6-8,72,66,60,67,62,57,100,89,64,29.99,29.72,29.55,10,6,0,23,16,34,0.42,6,Fog-Rain,223
2013-6-9,77,67,59,61,57,53,93,68,46,30.16,30.09,30.01,10,10,9,18,5,23,0.00,1,,258
2013-6-10,73,65,57,59,57,54,100,82,55,30.19,30.11,30.00,10,8,2,10,5,17,0.62,5,Rain,116
2013-6-11,73,63,55,66,61,54,100,92,81,30.00,29.74,29.54,10,5,1,20,10,28,1.38,8,Rain,166
2013-6-12,71,62,55,56,54,52,100,79,53,29.78,29.63,29.56,10,8,0,15,6,25,0.00,8,Fog,307
2013-6-13,68,62,55,55,53,51,94,80,56,29.81,29.74,29.61,10,9,3,12,5,20,0.26,5,Rain,64
2013-6-14,62,58,52,54,52,48,100,87,63,29.75,29.62,29.54,10,6,2,23,16,37,1.25,7,Rain,35
2013-6-15,75,65,57,57,52,39,83,63,28,29.95,29.87,29.74,10,10,10,13,8,22,0.00,0,,311
2013-6-16,75,66,57,62,58,51,97,75,44,29.95,29.88,29.78,10,9,5,20,8,26,0.00,3,,221
2013-6-17,78,68,60,65,61,57,93,78,62,29.92,29.86,29.79,10,9,7,16,6,28,0.00,1,Rain,225
2013-6-18,77,68,61,64,61,58,97,83,60,29.93,29.90,29.86,10,9,6,12,4,,0.00,4,Rain,41
2013-6-19,70,62,53,61,55,50,97,78,58,30.16,29.97,29.84,10,10,6,15,9,25,0.03,3,Rain,11
2013-6-20,71,61,51,58,53,48,93,71,53,30.29,30.24,30.17,10,10,10,14,5,22,0.00,0,,204
2013-6-21,75,68,62,55,52,48,70,57,41,30.28,30.26,30.23,10,10,10,20,13,29,0.00,0,,222
2013-6-22,77,70,64,63,58,52,90,71,45,30.25,30.22,30.17,10,10,10,18,11,24,0.00,0,,217
2013-6-23,78,72,66,69,65,63,94,84,66,30.19,30.13,30.07,10,10,9,18,12,26,0.00,3,,218
2013-6-24,87,77,68,72,69,64,100,81,63,30.05,29.97,29.89,10,8,1,17,13,32,0.00,4,Thunderstorm,233
2013-6-25,87,78,70,69,66,64,90,72,51,29.91,29.86,29.76,10,10,7,17,9,24,0.00,0,,233
2013-6-26,86,78,71,71,69,67,94,76,60,29.84,29.77,29.73,10,8,4,17,8,25,0.00,2,Rain,255
2013-6-27,77,72,66,70,67,64,100,92,76,29.84,29.80,29.75,10,4,0,8,2,,0.01,7,Fog,136
2013-6-28,72,70,68,70,69,68,100,97,93,29.75,29.63,29.57,9,2,0,21,11,38,0.28,8,Fog-Rain-Thunderstorm,194
2013-6-29,72,70,68,70,69,66,100,96,88,29.77,29.64,29.56,9,3,0,14,10,23,1.19,8,Fog-Rain,202
2013-6-30,77,72,68,70,69,66,100,94,84,29.99,29.86,29.76,10,4,1,14,9,20,0.04,8,Rain,205